Página principal
METAR-TAF:

METAR-TAF

Aeroportos :

Badajoz, Espanha

latitude: 38-53N, longitude: 006-49W, altura: 185 m

Observação actual do tempo

O boletim foi feito há 25 minutos, às 18:00 UTC
Vento 4 kt de este
Temperatura 11°C
Humidade 58%
Pressão 1029 hPa
Visibilidade 10 km ou mais
sem nuvens abaixo de 1500 metros e sem cumulonimbus

METAR: LEBZ 171800Z 08004KT CAVOK 11/03 Q1029

Hora: 19:25 (18:25 UTC)

Previsão

O boletim foi feito há 4 horas e 25 minutos, às 14:00 UTC
Previsão válida de 17 às 15 UTC a 18 às 15 UTC
Vento 8 kt de este
Visibilidade 10 km ou mais
sem nuvens abaixo de 1500 metros e sem cumulonimbus

TAF: LEBZ 171400Z 1715/1815 08008KT CAVOK TX16/1715Z TN01/1807Z

Observações e previsões do tempo de mais de 4000 aeroportos (mensagens METAR e TAF).

As estações disponíveis são os pontos amarelos e vermelhos sobre o mapa.

Mova o rato sobre o mapa para ver o nome da estação.

Depois clique no ponto para visualizar as observações e previsões meteorológicas.

Para alterar o mapa : clique nos botões verdes com uma cruz preta para aumentar o zoom; no botão verde com uma pitada de zoom; ou nas setas verdes para mapas adjacentes.


METAR-TAF: